Time;durP1;ratioP1;P1;durP2;ratioP2;P2;SDS_P1;SDS_P2;PMS_P1;PMS_P2;Temp;Humidity;BMP_temperature;BMP_pressure;BME280_temperature;BME280_humidity;BME280_pressure;Samples;Min_cycle;Max_cycle;Signal;HPM_P1;HPM_P2
2023/12/17 00:01:11;;;;;;;12.20;9.60;;;;;;;;;;5042365;28;20264;-79
2023/12/17 00:03:38;;;;;;;10.97;8.90;;;;;;;;;;5045769;28;20325;-79
2023/12/17 00:06:05;;;;;;;11.17;8.80;;;;;;;;;;5023162;28;20760;-78
2023/12/17 00:08:33;;;;;;;10.03;8.23;;;;;;;;;;5025491;28;20617;-76
2023/12/17 00:11:00;;;;;;;9.57;7.50;;;;;;;;;;5029468;28;20271;-78
2023/12/17 00:13:27;;;;;;;10.60;8.23;;;;;;;;;;5018879;28;20700;-82
2023/12/17 00:15:54;;;;;;;12.87;8.33;;;;;;;;;;5018325;28;20207;-77
2023/12/17 00:18:21;;;;;;;13.23;9.87;;;;;;;;;;5042916;28;20292;-78
2023/12/17 00:20:49;;;;;;;12.87;9.30;;;;;;;;;;5027916;28;20202;-78
2023/12/17 00:23:16;;;;;;;15.13;10.73;;;;;;;;;;5042638;28;20203;-80
2023/12/17 00:25:43;;;;;;;15.00;10.87;;;;;;;;;;5023829;28;20314;-78
2023/12/17 00:28:11;;;;;;;13.70;10.23;;;;;;;;;;5039464;28;20222;-81
2023/12/17 00:30:38;;;;;;;13.90;10.43;;;;;;;;;;5045177;28;20233;-80
2023/12/17 00:33:06;;;;;;;12.73;9.90;;;;;;;;;;5042737;28;20286;-79
2023/12/17 00:35:33;;;;;;;14.77;11.10;;;;;;;;;;5040365;28;20209;-79
2023/12/17 00:38:00;;;;;;;12.13;9.77;;;;;;;;;;5056027;28;20198;-80
2023/12/17 00:40:28;;;;;;;15.00;11.37;;;;;;;;;;5061170;28;20198;-77
2023/12/17 00:42:55;;;;;;;18.83;12.33;;;;;;;;;;5065648;28;20488;-76
2023/12/17 00:45:22;;;;;;;15.67;11.37;;;;;;;;;;5062297;28;20222;-79
2023/12/17 00:47:49;;;;;;;16.30;11.77;;;;;;;;;;5054911;28;20316;-79
2023/12/17 00:50:17;;;;;;;12.93;10.37;;;;;;;;;;5033757;28;20210;-80
2023/12/17 00:52:44;;;;;;;16.00;11.07;;;;;;;;;;5063298;28;20217;-80
2023/12/17 00:55:11;;;;;;;14.03;10.97;;;;;;;;;;5048978;28;20881;-79
2023/12/17 00:57:39;;;;;;;15.43;11.30;;;;;;;;;;5066799;28;20186;-77
2023/12/17 01:00:07;;;;;;;17.47;12.00;;;;;;;;;;5064429;28;20223;-78
2023/12/17 01:02:34;;;;;;;16.50;11.20;;;;;;;;;;5061524;28;20257;-76
2023/12/17 01:05:01;;;;;;;14.37;10.63;;;;;;;;;;5051186;28;20206;-82
2023/12/17 01:07:28;;;;;;;14.23;10.43;;;;;;;;;;5066330;28;20245;-80
2023/12/17 01:09:55;;;;;;;13.73;10.33;;;;;;;;;;5048952;28;20229;-78
2023/12/17 01:12:23;;;;;;;13.40;10.47;;;;;;;;;;5055921;28;20590;-77
2023/12/17 01:14:50;;;;;;;16.70;11.90;;;;;;;;;;5041128;28;20226;-80
2023/12/17 01:17:17;;;;;;;14.37;10.63;;;;;;;;;;5041767;28;20206;-77
2023/12/17 01:19:44;;;;;;;12.53;9.70;;;;;;;;;;5030075;28;20660;-78
2023/12/17 01:22:12;;;;;;;13.70;10.20;;;;;;;;;;5021475;28;20777;-81
2023/12/17 01:24:41;;;;;;;12.70;9.73;;;;;;;;;;5043679;28;20222;-80
2023/12/17 01:27:08;;;;;;;12.30;9.07;;;;;;;;;;5036851;28;20210;-79
2023/12/17 01:29:35;;;;;;;13.37;9.03;;;;;;;;;;5045156;28;20367;-76
2023/12/17 01:32:03;;;;;;;10.97;9.10;;;;;;;;;;5046473;28;20260;-78
2023/12/17 01:34:30;;;;;;;11.70;9.00;;;;;;;;;;5032965;28;20268;-78
2023/12/17 01:36:57;;;;;;;10.80;8.03;;;;;;;;;;5041846;28;20199;-77
2023/12/17 01:39:24;;;;;;;11.73;8.30;;;;;;;;;;5031428;28;20211;-81
2023/12/17 01:41:52;;;;;;;10.37;8.20;;;;;;;;;;5044275;28;20199;-79
2023/12/17 01:44:19;;;;;;;10.00;8.03;;;;;;;;;;5032039;28;20233;-77
2023/12/17 01:46:46;;;;;;;10.87;8.37;;;;;;;;;;5042106;28;20477;-77
2023/12/17 01:49:14;;;;;;;9.27;8.03;;;;;;;;;;5026332;28;20230;-78
2023/12/17 01:51:42;;;;;;;9.50;7.97;;;;;;;;;;5043902;28;20217;-80
2023/12/17 01:54:09;;;;;;;10.13;8.27;;;;;;;;;;5024875;28;20321;-81
2023/12/17 01:56:36;;;;;;;12.80;8.70;;;;;;;;;;5025187;28;20256;-78
2023/12/17 01:59:04;;;;;;;11.03;8.20;;;;;;;;;;5021279;28;20213;-80
2023/12/17 02:01:31;;;;;;;10.40;8.10;;;;;;;;;;5019309;28;20264;-78
2023/12/17 02:03:58;;;;;;;10.03;8.10;;;;;;;;;;5038938;28;20641;-79
2023/12/17 02:06:26;;;;;;;10.10;8.40;;;;;;;;;;5026233;28;20737;-79
2023/12/17 02:08:53;;;;;;;11.10;8.63;;;;;;;;;;5036813;28;21175;-80
2023/12/17 02:11:20;;;;;;;10.83;8.90;;;;;;;;;;5040149;28;20198;-79
2023/12/17 02:13:47;;;;;;;12.83;8.97;;;;;;;;;;5039934;28;20219;-78
2023/12/17 02:16:15;;;;;;;14.63;10.13;;;;;;;;;;5039894;28;20195;-79
2023/12/17 02:18:42;;;;;;;27.90;15.43;;;;;;;;;;5029186;28;20252;-80
2023/12/17 02:21:09;;;;;;;20.23;12.10;;;;;;;;;;5040883;28;20230;-80
2023/12/17 02:23:37;;;;;;;15.23;10.57;;;;;;;;;;5058837;28;20223;-81
2023/12/17 02:26:04;;;;;;;15.80;10.03;;;;;;;;;;5042871;28;20198;-79
2023/12/17 02:28:31;;;;;;;15.20;10.13;;;;;;;;;;5045365;28;20249;-80
2023/12/17 02:30:58;;;;;;;13.97;9.93;;;;;;;;;;5039044;28;20272;-78
2023/12/17 02:33:25;;;;;;;13.57;9.13;;;;;;;;;;5044998;28;20214;-78
2023/12/17 02:35:53;;;;;;;15.00;9.50;;;;;;;;;;5040588;28;20203;-79
2023/12/17 02:38:20;;;;;;;13.43;10.23;;;;;;;;;;5032691;28;20225;-79
2023/12/17 02:40:48;;;;;;;14.60;9.73;;;;;;;;;;5028897;28;20735;-79
2023/12/17 02:43:15;;;;;;;14.47;9.37;;;;;;;;;;5036254;28;20271;-80
2023/12/17 02:45:43;;;;;;;13.60;9.00;;;;;;;;;;5039293;28;20256;-77
2023/12/17 02:48:10;;;;;;;16.13;10.53;;;;;;;;;;5022685;28;20232;-79
2023/12/17 02:50:37;;;;;;;14.40;10.30;;;;;;;;;;5038907;28;20206;-78
2023/12/17 02:53:04;;;;;;;13.70;9.20;;;;;;;;;;5021089;28;20210;-78
2023/12/17 02:55:32;;;;;;;13.00;9.40;;;;;;;;;;5042551;28;20202;-79
2023/12/17 02:57:59;;;;;;;11.40;8.70;;;;;;;;;;5034041;28;20207;-77
2023/12/17 03:00:26;;;;;;;12.37;8.73;;;;;;;;;;5039828;28;20217;-77
2023/12/17 03:02:53;;;;;;;11.63;8.83;;;;;;;;;;5039209;28;20228;-79
2023/12/17 03:05:21;;;;;;;12.77;8.73;;;;;;;;;;5021619;28;20253;-79
2023/12/17 03:07:48;;;;;;;13.30;9.20;;;;;;;;;;5043145;28;20312;-79
2023/12/17 03:10:15;;;;;;;13.10;8.93;;;;;;;;;;5042748;28;20202;-80
2023/12/17 03:12:43;;;;;;;12.03;8.63;;;;;;;;;;5041454;28;20553;-80
2023/12/17 03:15:10;;;;;;;15.13;10.07;;;;;;;;;;5026821;28;20309;-78
2023/12/17 03:17:38;;;;;;;14.77;10.10;;;;;;;;;;5042937;28;20210;-78
2023/12/17 03:20:06;;;;;;;14.70;10.70;;;;;;;;;;5044256;28;20248;-79
2023/12/17 03:22:34;;;;;;;15.93;10.30;;;;;;;;;;5024326;28;20199;-80
2023/12/17 03:25:01;;;;;;;14.43;9.17;;;;;;;;;;5023393;28;20214;-79
2023/12/17 03:27:28;;;;;;;11.90;9.33;;;;;;;;;;5037318;28;20198;-77
2023/12/17 03:29:55;;;;;;;11.73;9.43;;;;;;;;;;5033316;28;20684;-78
2023/12/17 03:32:23;;;;;;;11.80;9.40;;;;;;;;;;5032183;28;20724;-79
2023/12/17 03:34:51;;;;;;;11.93;9.20;;;;;;;;;;5033745;28;20225;-78
2023/12/17 03:37:18;;;;;;;13.27;9.67;;;;;;;;;;5034881;28;20206;-78
2023/12/17 03:39:46;;;;;;;13.13;9.83;;;;;;;;;;5032727;28;20202;-79
2023/12/17 03:42:13;;;;;;;13.70;8.97;;;;;;;;;;5017178;28;20565;-77
2023/12/17 03:44:40;;;;;;;13.03;9.43;;;;;;;;;;5034556;28;20222;-78
2023/12/17 03:47:08;;;;;;;12.20;9.20;;;;;;;;;;5035263;28;20206;-78
2023/12/17 03:49:35;;;;;;;14.60;10.03;;;;;;;;;;5022900;28;20229;-77
2023/12/17 03:52:03;;;;;;;12.33;9.20;;;;;;;;;;5017658;28;20743;-79
2023/12/17 03:54:30;;;;;;;12.17;8.57;;;;;;;;;;5032052;28;20226;-78
2023/12/17 03:56:58;;;;;;;13.40;8.93;;;;;;;;;;5026850;28;20231;-78
2023/12/17 03:59:25;;;;;;;11.97;8.70;;;;;;;;;;5031448;28;20229;-80
2023/12/17 04:01:52;;;;;;;9.20;7.53;;;;;;;;;;5034008;28;20349;-80
2023/12/17 04:04:20;;;;;;;13.17;9.23;;;;;;;;;;5010499;28;20222;-79
2023/12/17 04:06:47;;;;;;;12.73;8.90;;;;;;;;;;5033926;28;20273;-78
2023/12/17 04:09:14;;;;;;;8.90;7.07;;;;;;;;;;5034877;28;20250;-77
2023/12/17 04:11:41;;;;;;;10.13;7.60;;;;;;;;;;5038694;28;20202;-79
2023/12/17 04:14:09;;;;;;;10.27;7.50;;;;;;;;;;5042083;28;20214;-79
2023/12/17 04:16:36;;;;;;;12.43;8.73;;;;;;;;;;5042554;28;20286;-78
2023/12/17 04:19:04;;;;;;;12.43;9.00;;;;;;;;;;5020968;28;20213;-77
2023/12/17 04:21:31;;;;;;;14.40;10.40;;;;;;;;;;5028719;28;20485;-78
2023/12/17 04:23:59;;;;;;;14.57;10.03;;;;;;;;;;5032496;28;20288;-78
2023/12/17 04:26:26;;;;;;;13.07;9.50;;;;;;;;;;5039973;28;20236;-79
2023/12/17 04:28:53;;;;;;;14.80;10.20;;;;;;;;;;5024940;28;20233;-78
2023/12/17 04:31:21;;;;;;;13.97;9.30;;;;;;;;;;5037530;28;20573;-78
2023/12/17 04:33:48;;;;;;;13.23;9.37;;;;;;;;;;5037614;28;20424;-77
2023/12/17 04:36:16;;;;;;;15.23;10.00;;;;;;;;;;5033255;28;20235;-79
2023/12/17 04:38:46;;;;;;;14.33;9.57;;;;;;;;;;5045974;28;20202;-77
2023/12/17 04:41:14;;;;;;;15.63;9.80;;;;;;;;;;5039587;28;20234;-76
2023/12/17 04:43:41;;;;;;;16.23;10.37;;;;;;;;;;5041167;28;20233;-78
2023/12/17 04:46:09;;;;;;;13.37;9.53;;;;;;;;;;5046833;28;20363;-79
2023/12/17 04:48:36;;;;;;;16.53;10.53;;;;;;;;;;5045173;28;20299;-78
2023/12/17 04:51:03;;;;;;;15.20;10.43;;;;;;;;;;5046978;28;20298;-78
2023/12/17 04:53:31;;;;;;;15.97;10.27;;;;;;;;;;5038602;28;20249;-79
2023/12/17 04:55:58;;;;;;;15.27;10.90;;;;;;;;;;5027743;28;20849;-78
2023/12/17 04:58:25;;;;;;;18.63;11.43;;;;;;;;;;5032308;28;20420;-78
2023/12/17 05:00:53;;;;;;;16.97;11.40;;;;;;;;;;5018540;28;20205;-77
2023/12/17 05:03:20;;;;;;;18.90;11.73;;;;;;;;;;5028523;28;20460;-78
2023/12/17 05:05:47;;;;;;;18.73;12.07;;;;;;;;;;5034063;28;20206;-77
2023/12/17 05:08:15;;;;;;;21.17;12.03;;;;;;;;;;5018860;28;20320;-77
2023/12/17 05:10:42;;;;;;;17.10;11.67;;;;;;;;;;5036098;28;20213;-78
2023/12/17 05:13:10;;;;;;;17.33;10.80;;;;;;;;;;5037326;28;20607;-78
2023/12/17 05:15:37;;;;;;;14.47;10.60;;;;;;;;;;5044224;28;20206;-82
2023/12/17 05:18:04;;;;;;;17.03;10.97;;;;;;;;;;5048379;28;20578;-78
2023/12/17 05:20:32;;;;;;;15.37;10.30;;;;;;;;;;5040046;28;20233;-77
2023/12/17 05:22:59;;;;;;;14.70;10.20;;;;;;;;;;5033879;28;20210;-80
2023/12/17 05:25:27;;;;;;;14.73;9.97;;;;;;;;;;5032008;28;20324;-78
2023/12/17 05:27:55;;;;;;;15.33;10.70;;;;;;;;;;5022643;28;20217;-77
2023/12/17 05:30:22;;;;;;;12.80;9.93;;;;;;;;;;5038284;28;20246;-77
2023/12/17 05:32:50;;;;;;;12.50;9.27;;;;;;;;;;5037807;28;20220;-80
2023/12/17 05:35:17;;;;;;;12.90;9.63;;;;;;;;;;5033400;28;20288;-78
2023/12/17 05:37:45;;;;;;;13.40;9.27;;;;;;;;;;5034851;28;20214;-79
2023/12/17 05:40:12;;;;;;;13.53;9.53;;;;;;;;;;5019896;28;20295;-77
2023/12/17 05:42:40;;;;;;;13.87;10.10;;;;;;;;;;5018851;28;20206;-80
2023/12/17 05:45:07;;;;;;;15.47;10.53;;;;;;;;;;5035208;28;20233;-78
2023/12/17 05:47:35;;;;;;;14.43;10.10;;;;;;;;;;5022213;28;20649;-76
2023/12/17 05:50:03;;;;;;;14.07;9.83;;;;;;;;;;5037449;28;20688;-77
2023/12/17 05:52:31;;;;;;;13.23;9.70;;;;;;;;;;5030406;28;20205;-78
2023/12/17 05:54:58;;;;;;;13.77;9.97;;;;;;;;;;5035891;28;20218;-78
2023/12/17 05:57:25;;;;;;;12.70;9.97;;;;;;;;;;5015884;28;20280;-77
2023/12/17 05:59:52;;;;;;;12.53;8.90;;;;;;;;;;5037192;28;20305;-78
2023/12/17 06:02:20;;;;;;;10.97;8.87;;;;;;;;;;5016911;28;20676;-77
2023/12/17 06:04:47;;;;;;;15.10;9.73;;;;;;;;;;5032251;28;20249;-80
2023/12/17 06:07:14;;;;;;;11.87;9.27;;;;;;;;;;5029871;28;20292;-78
2023/12/17 06:09:41;;;;;;;14.13;9.70;;;;;;;;;;5033615;28;20482;-79
2023/12/17 06:12:08;;;;;;;10.67;8.47;;;;;;;;;;5017242;28;20364;-77
2023/12/17 06:14:36;;;;;;;13.50;9.03;;;;;;;;;;5041763;28;20233;-78
2023/12/17 06:17:03;;;;;;;17.47;11.13;;;;;;;;;;5041256;28;20583;-79
2023/12/17 06:19:30;;;;;;;14.43;10.13;;;;;;;;;;5018937;28;20902;-80
2023/12/17 06:22:00;;;;;;;12.17;8.83;;;;;;;;;;5042512;28;20301;-79
2023/12/17 06:24:27;;;;;;;15.03;10.33;;;;;;;;;;5038747;28;20226;-79
2023/12/17 06:26:55;;;;;;;13.57;10.10;;;;;;;;;;5046683;28;20580;-79
2023/12/17 06:29:22;;;;;;;14.67;9.93;;;;;;;;;;5044810;28;20222;-79
2023/12/17 06:31:50;;;;;;;15.40;9.43;;;;;;;;;;5032284;28;20664;-78
2023/12/17 06:34:17;;;;;;;11.13;8.70;;;;;;;;;;5044133;28;20282;-76
2023/12/17 06:36:44;;;;;;;12.63;9.30;;;;;;;;;;5044633;28;20194;-77
2023/12/17 06:39:11;;;;;;;13.43;9.83;;;;;;;;;;5042361;28;20796;-79
2023/12/17 06:41:45;;;;;;;15.57;10.67;;;;;;;;;;5037923;28;20198;-78
2023/12/17 06:44:12;;;;;;;14.67;9.87;;;;;;;;;;5045956;28;20234;-77
2023/12/17 06:46:39;;;;;;;14.90;11.00;;;;;;;;;;5046592;28;20260;-78
2023/12/17 06:49:07;;;;;;;15.73;10.80;;;;;;;;;;5027128;28;20672;-78
2023/12/17 06:51:38;;;;;;;18.90;12.43;;;;;;;;;;5036067;28;20198;-78
2023/12/17 06:54:05;;;;;;;30.17;17.50;;;;;;;;;;5043926;28;20621;-78
2023/12/17 06:56:32;;;;;;;28.77;17.97;;;;;;;;;;5030764;28;20206;-76
2023/12/17 06:59:00;;;;;;;27.23;16.50;;;;;;;;;;5038747;28;20202;-79
2023/12/17 07:01:27;;;;;;;30.07;16.40;;;;;;;;;;5015603;28;20213;-79
2023/12/17 07:03:54;;;;;;;26.30;16.33;;;;;;;;;;5032569;28;20257;-77
2023/12/17 07:06:22;;;;;;;24.57;14.80;;;;;;;;;;5038972;28;20301;-77
2023/12/17 07:08:50;;;;;;;18.70;13.27;;;;;;;;;;5034106;28;20228;-81
2023/12/17 07:11:18;;;;;;;19.47;12.97;;;;;;;;;;5040277;28;20198;-79
2023/12/17 07:13:45;;;;;;;18.30;12.07;;;;;;;;;;5023215;28;20316;-78
2023/12/17 07:16:22;;;;;;;18.03;12.40;;;;;;;;;;5041795;28;20665;-79
2023/12/17 07:18:49;;;;;;;22.13;14.50;;;;;;;;;;5037165;28;20202;-79
2023/12/17 07:21:17;;;;;;;18.63;12.40;;;;;;;;;;5035014;28;20626;-78
2023/12/17 07:23:45;;;;;;;15.63;11.00;;;;;;;;;;5039318;28;20726;-77
2023/12/17 07:26:12;;;;;;;14.83;10.53;;;;;;;;;;5042055;28;20520;-78
2023/12/17 07:28:39;;;;;;;12.20;9.20;;;;;;;;;;5038487;28;20265;-79
2023/12/17 07:31:06;;;;;;;12.00;9.53;;;;;;;;;;5039083;28;20211;-79
2023/12/17 07:33:34;;;;;;;13.27;8.93;;;;;;;;;;5042040;28;20214;-80
2023/12/17 07:36:01;;;;;;;12.67;8.73;;;;;;;;;;5039459;28;20289;-79
2023/12/17 07:38:28;;;;;;;10.90;8.23;;;;;;;;;;5041706;28;20239;-78
2023/12/17 07:40:55;;;;;;;10.93;8.20;;;;;;;;;;5045552;28;20733;-77
2023/12/17 07:43:23;;;;;;;12.20;9.17;;;;;;;;;;5042034;28;20230;-78
2023/12/17 07:45:50;;;;;;;14.87;9.97;;;;;;;;;;5039059;28;20207;-78
2023/12/17 07:48:17;;;;;;;16.10;10.40;;;;;;;;;;5047771;28;20237;-78
2023/12/17 07:50:44;;;;;;;13.70;9.53;;;;;;;;;;5044375;28;20602;-79
2023/12/17 07:53:11;;;;;;;9.87;8.07;;;;;;;;;;5026942;28;20493;-80
2023/12/17 07:55:39;;;;;;;11.77;7.77;;;;;;;;;;5026368;28;20222;-76
2023/12/17 07:58:06;;;;;;;11.30;8.67;;;;;;;;;;5013132;28;20202;-80
2023/12/17 08:00:35;;;;;;;10.47;7.17;;;;;;;;;;5035615;28;20501;-77
2023/12/17 08:03:02;;;;;;;9.00;6.33;;;;;;;;;;5039926;28;20202;-80
2023/12/17 08:05:30;;;;;;;8.57;6.80;;;;;;;;;;5017854;28;20210;-78
2023/12/17 08:07:57;;;;;;;10.23;7.70;;;;;;;;;;5034365;28;20210;-80
2023/12/17 08:10:24;;;;;;;9.90;7.83;;;;;;;;;;5039391;28;20237;-81
2023/12/17 08:12:51;;;;;;;6.90;6.10;;;;;;;;;;5032460;28;20583;-78
2023/12/17 08:15:19;;;;;;;8.90;6.40;;;;;;;;;;5038566;28;20682;-79
2023/12/17 08:17:46;;;;;;;9.10;7.57;;;;;;;;;;5034313;28;20290;-77
2023/12/17 08:20:13;;;;;;;10.40;9.30;;;;;;;;;;5038432;28;20203;-80
2023/12/17 08:22:41;;;;;;;12.17;8.90;;;;;;;;;;5036888;28;20207;-77
2023/12/17 08:25:08;;;;;;;11.30;8.03;;;;;;;;;;5041963;28;20229;-78
2023/12/17 08:27:35;;;;;;;8.80;7.50;;;;;;;;;;5033095;28;20213;-78
2023/12/17 08:30:03;;;;;;;10.37;8.00;;;;;;;;;;5036926;28;20258;-78
2023/12/17 08:32:32;;;;;;;13.37;9.87;;;;;;;;;;5038055;28;20198;-78
2023/12/17 08:35:00;;;;;;;14.53;11.50;;;;;;;;;;5038576;28;20228;-78
2023/12/17 08:37:29;;;;;;;13.80;11.40;;;;;;;;;;5036240;28;20201;-75
2023/12/17 08:39:57;;;;;;;18.80;13.70;;;;;;;;;;5038040;28;20294;-78
2023/12/17 08:42:24;;;;;;;12.33;9.70;;;;;;;;;;5034558;28;20199;-78
2023/12/17 08:44:51;;;;;;;13.17;9.27;;;;;;;;;;5035368;28;20309;-77
2023/12/17 08:47:18;;;;;;;9.87;8.00;;;;;;;;;;5018818;28;20206;-80
2023/12/17 08:49:46;;;;;;;7.77;5.90;;;;;;;;;;5057823;28;20281;-77
2023/12/17 08:52:13;;;;;;;7.17;5.63;;;;;;;;;;5038447;28;20197;-81
2023/12/17 08:54:40;;;;;;;6.47;4.93;;;;;;;;;;5046715;28;20276;-80
2023/12/17 08:57:08;;;;;;;12.40;6.40;;;;;;;;;;5056785;28;20207;-81
2023/12/17 08:59:35;;;;;;;11.27;6.73;;;;;;;;;;5049001;28;20278;-79
2023/12/17 09:02:02;;;;;;;7.40;5.83;;;;;;;;;;5027923;28;20198;-80
2023/12/17 09:04:29;;;;;;;9.20;7.57;;;;;;;;;;5029639;28;20218;-78
2023/12/17 09:06:57;;;;;;;10.87;7.67;;;;;;;;;;5012093;28;20202;-78
2023/12/17 09:09:24;;;;;;;7.50;6.03;;;;;;;;;;5027587;28;20226;-80
2023/12/17 09:11:51;;;;;;;5.80;5.20;;;;;;;;;;5032483;28;20199;-76
2023/12/17 09:14:18;;;;;;;6.57;5.43;;;;;;;;;;5035590;28;20226;-80
2023/12/17 09:16:46;;;;;;;6.70;5.23;;;;;;;;;;5035405;28;20210;-80
2023/12/17 09:19:13;;;;;;;5.23;4.73;;;;;;;;;;5035515;28;20714;-77
2023/12/17 09:21:40;;;;;;;4.47;4.07;;;;;;;;;;5029458;28;20274;-80
2023/12/17 09:24:08;;;;;;;4.57;4.20;;;;;;;;;;5031398;28;20641;-79
2023/12/17 09:26:35;;;;;;;5.07;3.70;;;;;;;;;;5031375;28;20681;-78
2023/12/17 09:29:02;;;;;;;6.00;4.83;;;;;;;;;;5027636;28;20674;-78
2023/12/17 09:31:29;;;;;;;6.00;5.00;;;;;;;;;;5027662;28;20234;-76
2023/12/17 09:33:57;;;;;;;5.50;5.00;;;;;;;;;;5030755;28;20230;-77
2023/12/17 09:36:26;;;;;;;5.77;4.67;;;;;;;;;;5030041;28;20202;-79
2023/12/17 09:38:55;;;;;;;6.90;4.77;;;;;;;;;;5037236;28;20622;-76
2023/12/17 09:41:23;;;;;;;4.57;4.10;;;;;;;;;;5033997;28;20301;-80
2023/12/17 09:43:51;;;;;;;5.03;3.93;;;;;;;;;;5034467;28;20620;-78
2023/12/17 09:46:19;;;;;;;4.43;3.40;;;;;;;;;;5037459;28;20680;-78
2023/12/17 09:48:47;;;;;;;3.40;3.10;;;;;;;;;;5039628;28;20616;-77
2023/12/17 09:51:15;;;;;;;3.87;3.50;;;;;;;;;;5042613;28;20222;-78
2023/12/17 09:53:43;;;;;;;4.60;3.50;;;;;;;;;;5033399;28;20590;-79
2023/12/17 09:56:13;;;;;;;3.83;3.27;;;;;;;;;;5035605;28;20226;-76
2023/12/17 09:58:41;;;;;;;4.03;3.47;;;;;;;;;;5024000;28;20203;-80
2023/12/17 10:01:10;;;;;;;3.40;3.10;;;;;;;;;;5034838;28;20206;-77
2023/12/17 10:03:38;;;;;;;3.20;2.90;;;;;;;;;;5016435;28;20287;-77
2023/12/17 10:06:06;;;;;;;2.90;2.70;;;;;;;;;;5030628;28;20234;-75
2023/12/17 10:08:34;;;;;;;3.20;2.40;;;;;;;;;;5037198;28;20206;-78
2023/12/17 10:11:01;;;;;;;3.00;2.70;;;;;;;;;;5020027;28;20296;-77
2023/12/17 10:13:29;;;;;;;4.40;2.57;;;;;;;;;;5035695;28;20743;-79
2023/12/17 10:15:56;;;;;;;4.17;2.37;;;;;;;;;;5020957;28;20209;-78
2023/12/17 10:18:24;;;;;;;4.93;4.10;;;;;;;;;;5028734;28;20206;-79
2023/12/17 10:20:51;;;;;;;8.53;5.13;;;;;;;;;;5016687;28;20209;-79
2023/12/17 10:23:19;;;;;;;3.27;3.07;;;;;;;;;;5029500;28;20233;-76
2023/12/17 10:25:46;;;;;;;2.73;2.53;;;;;;;;;;5023623;28;20207;-77
2023/12/17 10:28:13;;;;;;;2.03;1.93;;;;;;;;;;5024520;28;20206;-80
2023/12/17 10:30:41;;;;;;;2.30;2.10;;;;;;;;;;5027740;28;20296;-81
2023/12/17 10:33:14;;;;;;;1.97;1.83;;;;;;;;;;5036110;28;20249;-79
2023/12/17 10:35:42;;;;;;;2.30;2.00;;;;;;;;;;5047699;28;20198;-79
2023/12/17 10:38:10;;;;;;;4.03;2.97;;;;;;;;;;5041203;28;20199;-79
2023/12/17 10:40:40;;;;;;;8.33;6.93;;;;;;;;;;5043014;28;20203;-81
2023/12/17 10:43:07;;;;;;;6.17;5.60;;;;;;;;;;5033482;28;20210;-77
2023/12/17 10:45:35;;;;;;;5.10;4.50;;;;;;;;;;5030096;28;20238;-80
2023/12/17 10:48:04;;;;;;;3.63;2.77;;;;;;;;;;5034495;28;20217;-85
2023/12/17 10:50:33;;;;;;;2.85;2.63;;;;;;;;;;5037201;28;21070;-79
2023/12/17 10:53:01;;;;;;;3.17;2.87;;;;;;;;;;5044261;28;20876;-82
2023/12/17 10:55:28;;;;;;;5.67;3.87;;;;;;;;;;5039798;28;20630;-81
2023/12/17 10:57:58;;;;;;;6.33;4.33;;;;;;;;;;5034497;28;20203;-81
2023/12/17 11:00:28;;;;;;;7.63;4.90;;;;;;;;;;5035432;28;20214;-82
2023/12/17 11:02:59;;;;;;;3.80;3.13;;;;;;;;;;5036600;28;20544;-83
2023/12/17 11:05:27;;;;;;;2.87;2.40;;;;;;;;;;5042800;28;20208;-81
2023/12/17 11:07:54;;;;;;;2.17;2.00;;;;;;;;;;5037563;28;20238;-80
2023/12/17 11:10:23;;;;;;;2.40;2.20;;;;;;;;;;5041656;28;20300;-81
2023/12/17 11:12:51;;;;;;;2.00;1.90;;;;;;;;;;5033620;28;20205;-81
2023/12/17 11:15:22;;;;;;;2.17;1.97;;;;;;;;;;5037088;28;20225;-81
2023/12/17 11:17:53;;;;;;;2.23;1.70;;;;;;;;;;5018648;28;20289;-82
2023/12/17 11:20:21;;;;;;;2.20;1.47;;;;;;;;;;5043451;28;20193;-79
2023/12/17 11:22:49;;;;;;;1.80;1.70;;;;;;;;;;5039217;28;20210;-82
2023/12/17 11:25:19;;;;;;;1.50;1.40;;;;;;;;;;5039425;28;20722;-81
2023/12/17 11:27:50;;;;;;;1.60;1.50;;;;;;;;;;5018954;28;20218;-79
2023/12/17 11:30:29;;;;;;;1.33;1.30;;;;;;;;;;5038802;28;20597;-81
2023/12/17 11:33:01;;;;;;;1.20;1.20;;;;;;;;;;5037370;28;20208;-81
2023/12/17 11:35:29;;;;;;;1.33;1.30;;;;;;;;;;5042409;28;20565;-79
2023/12/17 11:37:57;;;;;;;1.40;1.40;;;;;;;;;;5021473;28;20206;-81
2023/12/17 11:40:26;;;;;;;3.00;1.50;;;;;;;;;;5040576;28;20245;-78
2023/12/17 11:43:02;;;;;;;1.30;1.30;;;;;;;;;;5036747;28;20251;-81
2023/12/17 11:45:36;;;;;;;1.33;1.30;;;;;;;;;;5040754;28;20597;-80
2023/12/17 11:48:07;;;;;;;1.03;1.00;;;;;;;;;;5036383;28;21184;-84
2023/12/17 11:50:45;;;;;;;2.40;1.10;;;;;;;;;;5037464;28;20658;-82
2023/12/17 11:53:13;;;;;;;1.07;1.07;;;;;;;;;;5038766;28;20209;-80
2023/12/17 11:55:44;;;;;;;1.00;1.00;;;;;;;;;;5033406;28;20198;-81
2023/12/17 11:58:11;;;;;;;1.53;1.13;;;;;;;;;;5032564;28;20932;-81
2023/12/17 12:00:39;;;;;;;1.10;1.10;;;;;;;;;;5036374;28;20229;-80
2023/12/17 12:03:06;;;;;;;1.00;1.00;;;;;;;;;;5036294;28;20597;-79
2023/12/17 12:05:34;;;;;;;1.10;1.10;;;;;;;;;;5020213;28;20209;-81
2023/12/17 12:08:01;;;;;;;1.77;1.00;;;;;;;;;;5035249;28;20214;-81
2023/12/17 12:10:28;;;;;;;1.23;1.00;;;;;;;;;;5037329;28;20226;-81
2023/12/17 12:13:05;;;;;;;0.90;0.90;;;;;;;;;;5034840;28;20213;-80
2023/12/17 12:15:33;;;;;;;0.90;0.90;;;;;;;;;;5036424;28;20198;-83
2023/12/17 12:18:00;;;;;;;2.10;1.00;;;;;;;;;;5023923;28;20218;-81
2023/12/17 12:20:35;;;;;;;1.30;1.10;;;;;;;;;;5016949;28;20297;-83
2023/12/17 12:23:08;;;;;;;1.47;1.20;;;;;;;;;;5017030;28;20209;-80
2023/12/17 12:25:36;;;;;;;1.15;1.05;;;;;;;;;;5037431;28;20198;-84
2023/12/17 12:28:03;;;;;;;1.50;1.00;;;;;;;;;;5040047;28;20321;-82
2023/12/17 12:30:32;;;;;;;1.58;1.10;;;;;;;;;;5018258;28;20237;-82
2023/12/17 12:33:20;;;;;;;1.27;1.10;;;;;;;;;;5038051;28;20803;-80
2023/12/17 12:35:48;;;;;;;1.00;1.00;;;;;;;;;;5021044;28;20199;-83
2023/12/17 12:38:22;;;;;;;1.35;1.30;;;;;;;;;;5037219;28;20226;-82
2023/12/17 12:40:50;;;;;;;1.15;1.05;;;;;;;;;;5037168;28;20256;-79
2023/12/17 12:43:17;;;;;;;1.63;1.05;;;;;;;;;;5022806;28;20266;-83
2023/12/17 12:45:45;;;;;;;1.00;0.90;;;;;;;;;;5016780;28;20199;-80
2023/12/17 12:48:16;;;;;;;0.80;0.80;;;;;;;;;;5036996;28;20207;-82
2023/12/17 12:50:44;;;;;;;0.82;0.82;;;;;;;;;;5039758;28;20226;-81
2023/12/17 12:53:12;;;;;;;0.80;0.80;;;;;;;;;;5038125;28;20217;-76
2023/12/17 12:55:49;;;;;;;1.00;1.00;;;;;;;;;;5064906;28;20240;-77
2023/12/17 12:58:17;;;;;;;0.90;0.90;;;;;;;;;;5061243;28;20203;-77
2023/12/17 13:00:48;;;;;;;1.27;1.05;;;;;;;;;;5055820;28;20182;-77
2023/12/17 13:03:15;;;;;;;1.13;1.13;;;;;;;;;;5031852;28;20468;-78
2023/12/17 13:05:43;;;;;;;1.10;1.10;;;;;;;;;;5057029;28;20206;-78
2023/12/17 13:08:11;;;;;;;1.63;1.20;;;;;;;;;;5053116;28;20190;-78
2023/12/17 13:10:38;;;;;;;4.40;1.25;;;;;;;;;;5056451;28;20242;-79
2023/12/17 13:13:05;;;;;;;1.00;1.00;;;;;;;;;;5030070;28;20664;-82
2023/12/17 13:15:33;;;;;;;0.82;0.73;;;;;;;;;;5030743;28;20212;-82
2023/12/17 13:18:02;;;;;;;1.25;0.93;;;;;;;;;;5035968;28;20281;-80
2023/12/17 13:20:30;;;;;;;0.90;0.90;;;;;;;;;;5037829;28;20232;-82
2023/12/17 13:22:57;;;;;;;1.00;1.00;;;;;;;;;;5036643;28;20225;-82
2023/12/17 13:25:29;;;;;;;1.92;1.80;;;;;;;;;;5034726;28;20203;-79
2023/12/17 13:27:57;;;;;;;1.20;1.20;;;;;;;;;;5023517;28;20533;-81
2023/12/17 13:30:25;;;;;;;1.13;1.10;;;;;;;;;;5048251;28;20587;-83
2023/12/17 13:32:53;;;;;;;1.60;1.50;;;;;;;;;;5041806;28;20198;-77
2023/12/17 13:35:20;;;;;;;6.77;4.23;;;;;;;;;;5017758;28;20218;-81
2023/12/17 13:37:48;;;;;;;12.97;7.40;;;;;;;;;;5035640;28;20264;-81
2023/12/17 13:40:16;;;;;;;8.87;5.40;;;;;;;;;;5022564;28;20949;-81
2023/12/17 13:42:45;;;;;;;2.90;2.25;;;;;;;;;;5044526;28;20202;-81
2023/12/17 13:45:12;;;;;;;1.53;1.37;;;;;;;;;;5036934;28;20307;-81
2023/12/17 13:47:40;;;;;;;1.70;1.23;;;;;;;;;;5038388;28;20203;-80
2023/12/17 13:50:08;;;;;;;2.38;1.30;;;;;;;;;;5043183;28;20207;-81
2023/12/17 13:52:36;;;;;;;1.43;1.17;;;;;;;;;;5028436;28;20249;-83
2023/12/17 13:55:05;;;;;;;1.80;1.70;;;;;;;;;;5040641;28;20234;-81
2023/12/17 13:57:33;;;;;;;1.90;1.80;;;;;;;;;;5045176;28;20195;-83
2023/12/17 14:00:00;;;;;;;2.40;2.20;;;;;;;;;;5032783;28;20219;-81
2023/12/17 14:02:28;;;;;;;2.47;2.28;;;;;;;;;;5040007;28;20199;-82
2023/12/17 14:04:55;;;;;;;1.80;1.70;;;;;;;;;;5041354;28;20227;-81
2023/12/17 14:07:23;;;;;;;1.67;1.57;;;;;;;;;;5041611;28;20198;-83
2023/12/17 14:09:50;;;;;;;2.33;2.13;;;;;;;;;;5036130;28;20214;-81
2023/12/17 14:12:18;;;;;;;3.73;2.40;;;;;;;;;;5032660;28;21584;-79
2023/12/17 14:14:46;;;;;;;2.20;2.10;;;;;;;;;;5028001;28;20248;-81
2023/12/17 14:17:16;;;;;;;2.20;1.90;;;;;;;;;;5039656;28;20633;-83
2023/12/17 14:19:45;;;;;;;2.73;1.97;;;;;;;;;;5032071;28;20306;-80
2023/12/17 14:22:13;;;;;;;1.80;1.70;;;;;;;;;;5035941;28;20305;-81
2023/12/17 14:24:41;;;;;;;1.87;1.77;;;;;;;;;;5038456;28;20237;-80
2023/12/17 14:27:08;;;;;;;2.00;1.90;;;;;;;;;;5032074;28;20206;-81
2023/12/17 14:29:38;;;;;;;2.70;2.50;;;;;;;;;;5013978;28;20206;-80
2023/12/17 14:32:05;;;;;;;2.30;2.10;;;;;;;;;;5031493;28;20476;-81
2023/12/17 14:34:37;;;;;;;2.40;2.20;;;;;;;;;;5023812;28;20233;-79
2023/12/17 14:37:05;;;;;;;3.00;2.67;;;;;;;;;;5036973;28;20203;-81